Time;durP1;ratioP1;P1;durP2;ratioP2;P2;SDS_P1;SDS_P2;PMS_P1;PMS_P2;Temp;Humidity;BMP_temperature;BMP_pressure;BME280_temperature;BME280_humidity;BME280_pressure;Samples;Min_cycle;Max_cycle;Signal;HPM_P1;HPM_P2
2021/12/28 00:01:32;;;;;;;95.63;40.13;;;;;;;-4.73;64.23;99569.00;4957437;28;97222;-81
2021/12/28 00:03:59;;;;;;;104.60;43.70;;;;;;;-4.81;64.33;99558.63;4981078;28;96897;-84
2021/12/28 00:06:24;;;;;;;95.23;42.40;;;;;;;-4.83;64.31;99557.75;4984342;28;99321;-83
2021/12/28 00:08:50;;;;;;;104.93;41.00;;;;;;;-4.95;64.69;99534.50;4955730;28;101051;-83
2021/12/28 00:11:16;;;;;;;112.60;43.87;;;;;;;-4.82;64.62;99554.34;4948664;28;97096;-82
2021/12/28 00:13:44;;;;;;;99.77;40.50;;;;;;;-4.82;64.10;99556.91;4967274;28;97089;-83
2021/12/28 00:16:29;;;;;;;94.83;40.50;;;;;;;-4.80;63.77;99560.34;5009650;28;97718;-82
2021/12/28 00:18:55;;;;;;;106.10;41.27;;;;;;;-4.87;63.85;99538.91;4965694;28;101306;-82
2021/12/28 00:21:21;;;;;;;96.60;41.87;;;;;;;-4.85;64.06;99556.88;4988096;28;97181;-83
2021/12/28 00:23:47;;;;;;;101.57;41.23;;;;;;;-4.85;64.29;99547.50;4953725;28;97018;-84
2021/12/28 00:26:14;;;;;;;102.87;42.53;;;;;;;-4.94;64.02;99538.81;5001505;28;101673;-82
2021/12/28 00:28:42;;;;;;;89.43;40.87;;;;;;;-4.99;64.55;99530.19;4990186;28;98363;-82
2021/12/28 00:31:11;;;;;;;101.93;42.03;;;;;;;-4.94;64.38;99529.44;4959087;28;96782;-84
2021/12/28 00:33:37;;;;;;;105.33;41.97;;;;;;;-5.03;64.57;99526.72;4973500;28;97849;-83
2021/12/28 00:36:04;;;;;;;92.33;41.43;;;;;;;-4.96;64.65;99537.91;4975698;28;101530;-83
2021/12/28 00:38:31;;;;;;;97.00;43.50;;;;;;;-4.93;64.69;99531.13;4977428;28;99660;-82
2021/12/28 00:41:02;;;;;;;97.47;41.83;;;;;;;-5.05;64.98;99513.88;4959124;28;97184;-82
2021/12/28 00:43:29;;;;;;;102.50;43.87;;;;;;;-5.06;64.87;99527.53;5005979;28;97069;-83
2021/12/28 00:45:55;;;;;;;94.47;41.67;;;;;;;-4.94;64.75;99528.56;4967446;28;101456;-83
2021/12/28 00:48:21;;;;;;;102.80;41.97;;;;;;;-5.04;65.00;99515.59;4979670;28;101404;-83
2021/12/28 00:50:48;;;;;;;99.07;41.80;;;;;;;-4.97;64.90;99531.06;4961996;28;96740;-81
2021/12/28 00:53:14;;;;;;;103.83;43.97;;;;;;;-4.95;64.91;99516.59;4977302;28;97703;-84
2021/12/28 00:55:39;;;;;;;99.20;43.10;;;;;;;-5.16;64.87;99497.50;4979648;28;97760;-84
2021/12/28 00:58:05;;;;;;;108.83;44.23;;;;;;;-5.05;65.02;99520.72;4961521;28;101273;-81
2021/12/28 01:00:34;;;;;;;105.40;44.20;;;;;;;-5.32;65.51;99473.38;4980125;28;97384;-84
2021/12/28 01:03:01;;;;;;;104.43;42.90;;;;;;;-4.96;64.80;99515.72;4963184;28;96814;-85
2021/12/28 01:05:32;;;;;;;112.30;45.73;;;;;;;-5.08;64.93;99521.53;4979982;28;102022;-85
2021/12/28 01:07:58;;;;;;;101.13;43.97;;;;;;;-5.17;65.57;99502.59;4957956;28;101031;-82
2021/12/28 01:10:27;;;;;;;107.27;43.73;;;;;;;-5.06;65.03;99519.84;4985232;28;96689;-83
2021/12/28 01:12:55;;;;;;;103.60;44.47;;;;;;;-5.10;65.08;99518.06;4968159;28;96883;-85
2021/12/28 01:15:22;;;;;;;100.07;44.10;;;;;;;-5.14;65.28;99507.78;4957612;28;101770;-82
2021/12/28 01:17:48;;;;;;;103.27;45.33;;;;;;;-5.02;65.07;99521.63;4959704;28;101549;-84
2021/12/28 01:20:15;;;;;;;100.60;43.07;;;;;;;-5.09;65.39;99518.91;4978069;28;96900;-82
2021/12/28 01:22:41;;;;;;;99.83;42.63;;;;;;;-5.16;64.91;99512.00;4961907;28;98283;-83
2021/12/28 01:25:09;;;;;;;111.73;46.90;;;;;;;-5.12;65.74;99530.00;5002058;28;101505;-83
2021/12/28 01:27:35;;;;;;;108.33;42.63;;;;;;;-5.08;65.42;99518.97;4974903;28;101237;-84
2021/12/28 01:30:06;;;;;;;103.00;44.43;;;;;;;-5.12;65.05;99527.44;4948381;28;97131;-82
2021/12/28 01:32:32;;;;;;;110.30;46.35;;;;;;;-5.03;65.27;99532.72;4958912;28;96930;-83
2021/12/28 01:34:58;;;;;;;116.40;47.03;;;;;;;-5.42;64.86;99461.25;4961024;28;100934;-83
2021/12/28 01:37:27;;;;;;;113.03;46.27;;;;;;;-5.05;65.04;99511.31;4974312;28;102081;-83
2021/12/28 01:39:52;;;;;;;109.23;45.43;;;;;;;-5.12;65.32;99517.19;4980625;28;96639;-84
2021/12/28 01:42:18;;;;;;;119.20;45.97;;;;;;;-4.90;64.93;99536.31;4986158;28;97336;-82
2021/12/28 01:44:44;;;;;;;102.97;45.13;;;;;;;-5.17;65.25;99507.72;4977191;28;100369;-83
2021/12/28 01:47:12;;;;;;;116.97;46.87;;;;;;;-5.03;65.59;99527.59;4979098;28;98066;-83
2021/12/28 01:49:38;;;;;;;108.33;47.67;;;;;;;-4.94;65.13;99523.44;5009622;28;96724;-83
2021/12/28 01:52:05;;;;;;;111.97;45.43;;;;;;;-5.02;65.49;99503.69;4963701;28;97260;-82
2021/12/28 01:54:30;;;;;;;113.77;46.20;;;;;;;-5.07;65.31;99501.91;4961436;28;101712;-83
2021/12/28 01:56:56;;;;;;;120.77;50.83;;;;;;;-4.81;64.97;99510.84;4978442;28;98248;-83
2021/12/28 01:59:22;;;;;;;117.83;48.93;;;;;;;-4.98;65.08;99507.16;4974904;28;96715;-83
2021/12/28 02:01:48;;;;;;;106.60;46.47;;;;;;;-5.07;65.35;99509.59;4987504;28;96994;-82
2021/12/28 02:04:22;;;;;;;111.23;46.37;;;;;;;-5.14;65.44;99469.38;4958938;28;100008;-83
2021/12/28 02:06:48;;;;;;;112.73;48.17;;;;;;;-5.11;65.51;99479.66;4951393;28;101368;-83
2021/12/28 02:09:15;;;;;;;113.00;47.20;;;;;;;-5.06;65.33;99488.25;4969741;28;97108;-83
2021/12/28 02:11:41;;;;;;;111.93;46.73;;;;;;;-5.06;65.86;99495.94;4958801;28;96896;-82
2021/12/28 02:14:08;;;;;;;107.07;48.07;;;;;;;-5.03;65.87;99481.50;4974763;28;98057;-82
2021/12/28 02:16:36;;;;;;;116.10;48.50;;;;;;;-5.00;65.09;99485.81;4942347;28;101139;-83
2021/12/28 02:19:04;;;;;;;113.83;48.23;;;;;;;-5.02;65.52;99482.38;4958898;28;96903;-83
2021/12/28 02:21:32;;;;;;;99.70;45.67;;;;;;;-5.35;65.57;99441.75;4942578;28;96823;-84
2021/12/28 02:23:59;;;;;;;114.37;48.67;;;;;;;-5.18;65.97;99483.81;4958384;28;102089;-81
2021/12/28 02:26:25;;;;;;;126.43;49.30;;;;;;;-5.20;65.57;99484.66;4957113;28;102563;-83
2021/12/28 02:28:51;;;;;;;114.23;49.70;;;;;;;-5.31;65.66;99464.84;4971127;28;98258;-82
2021/12/28 02:31:16;;;;;;;112.47;48.27;;;;;;;-5.19;66.09;99471.00;4973477;28;97172;-84
2021/12/28 02:33:42;;;;;;;111.67;47.90;;;;;;;-5.07;65.95;99478.88;4964743;28;101293;-83
2021/12/28 02:36:08;;;;;;;107.33;47.70;;;;;;;-5.19;65.52;99471.00;4949585;28;101672;-84
2021/12/28 02:38:34;;;;;;;114.47;47.90;;;;;;;-5.32;65.89;99447.78;4994696;28;96647;-83
2021/12/28 02:41:01;;;;;;;104.20;47.43;;;;;;;-5.14;65.99;99480.47;4961689;28;97202;-82
2021/12/28 02:43:26;;;;;;;109.57;46.50;;;;;;;-5.07;66.08;99474.59;4993665;28;97848;-83
2021/12/28 02:45:54;;;;;;;115.27;48.13;;;;;;;-5.17;65.95;99466.78;4957695;28;101361;-82
2021/12/28 02:48:21;;;;;;;120.17;50.70;;;;;;;-5.12;65.85;99467.69;4976764;28;97276;-82
2021/12/28 02:50:49;;;;;;;116.23;49.43;;;;;;;-5.04;65.60;99459.28;4982648;28;96933;-83
2021/12/28 02:53:17;;;;;;;106.63;48.00;;;;;;;-5.10;65.75;99461.75;4976639;28;101222;-83
2021/12/28 02:55:43;;;;;;;114.10;49.30;;;;;;;-5.07;66.12;99460.94;4973843;28;99401;-83
2021/12/28 02:58:13;;;;;;;119.37;49.23;;;;;;;-4.98;65.40;99450.84;4970132;28;97226;-83
2021/12/28 03:00:43;;;;;;;111.93;49.73;;;;;;;-5.37;66.23;99421.25;4950205;28;97987;-82
2021/12/28 03:03:19;;;;;;;117.60;47.70;;;;;;;-5.23;66.12;99441.94;4975248;28;101677;-83
2021/12/28 03:05:47;;;;;;;118.30;50.67;;;;;;;-5.41;66.15;99419.50;4977242;28;101015;-83
2021/12/28 03:08:14;;;;;;;129.03;52.47;;;;;;;-5.27;66.22;99445.28;4965238;28;96814;-83
2021/12/28 03:10:41;;;;;;;117.23;49.50;;;;;;;-5.24;66.13;99448.78;4972743;28;96807;-83
2021/12/28 03:13:08;;;;;;;119.57;49.33;;;;;;;-5.26;66.12;99434.22;4960807;28;100558;-82
2021/12/28 03:15:34;;;;;;;119.13;50.33;;;;;;;-5.09;65.65;99455.81;4954957;28;101542;-83
2021/12/28 03:18:00;;;;;;;124.27;52.10;;;;;;;-5.25;66.22;99444.47;4965722;28;97688;-82
2021/12/28 03:20:25;;;;;;;116.50;50.03;;;;;;;-5.27;66.53;99443.56;4950617;28;97269;-83
2021/12/28 03:22:51;;;;;;;115.43;51.27;;;;;;;-5.16;66.25;99433.53;4957544;28;100221;-83
2021/12/28 03:25:17;;;;;;;124.10;52.70;;;;;;;-5.38;66.40;99406.75;4988550;28;98175;-83
2021/12/28 03:27:43;;;;;;;116.40;51.00;;;;;;;-5.30;66.56;99430.75;4974283;28;96924;-83
2021/12/28 03:30:11;;;;;;;127.23;53.17;;;;;;;-5.25;66.96;99420.59;4975546;28;96886;-82
2021/12/28 03:32:37;;;;;;;123.57;52.37;;;;;;;-5.14;66.56;99423.31;4960283;28;101774;-84
2021/12/28 03:35:04;;;;;;;123.17;52.77;;;;;;;-5.24;66.24;99420.63;4969717;28;101608;-83
2021/12/28 03:37:31;;;;;;;122.97;54.03;;;;;;;-5.38;66.61;99399.09;4957448;28;96835;-81
2021/12/28 03:39:57;;;;;;;120.90;52.23;;;;;;;-5.26;66.61;99426.56;4973523;28;96903;-83
2021/12/28 03:42:23;;;;;;;125.77;49.87;;;;;;;-5.22;66.65;99419.78;4976181;28;101945;-83
2021/12/28 03:44:49;;;;;;;126.83;53.00;;;;;;;-5.17;66.88;99429.25;4966653;28;100963;-84
2021/12/28 03:47:14;;;;;;;124.17;56.10;;;;;;;-5.25;66.54;99421.44;5009130;28;96700;-82
2021/12/28 03:49:40;;;;;;;120.13;53.33;;;;;;;-5.18;67.01;99418.97;4976740;28;96855;-83
2021/12/28 03:52:06;;;;;;;127.37;53.27;;;;;;;-5.25;66.96;99434.25;4976824;28;98021;-83
2021/12/28 03:54:33;;;;;;;127.40;54.93;;;;;;;-5.27;66.95;99423.09;4972920;28;101306;-83
2021/12/28 03:56:59;;;;;;;129.47;55.80;;;;;;;-5.17;67.14;99433.50;4952654;28;97120;-82
2021/12/28 03:59:25;;;;;;;131.97;55.90;;;;;;;-5.26;66.61;99406.94;4982001;28;97078;-84
2021/12/28 04:01:50;;;;;;;121.70;53.47;;;;;;;-5.12;66.70;99409.72;4989352;28;101602;-81
2021/12/28 04:04:16;;;;;;;124.63;54.77;;;;;;;-5.02;67.15;99418.38;4991308;28;97981;-83
2021/12/28 04:06:41;;;;;;;129.60;54.67;;;;;;;-5.11;66.52;99406.31;4971706;28;97212;-82
2021/12/28 04:09:11;;;;;;;127.90;54.17;;;;;;;-4.96;66.33;99418.44;4960115;28;98401;-83
2021/12/28 04:11:36;;;;;;;129.90;54.50;;;;;;;-5.03;67.30;99403.88;4992338;28;98734;-83
2021/12/28 04:14:05;;;;;;;129.47;54.67;;;;;;;-4.86;65.89;99415.19;4962930;28;101919;-83
2021/12/28 04:16:31;;;;;;;132.03;55.97;;;;;;;-4.96;66.64;99409.91;4975229;28;96882;-83
2021/12/28 04:18:57;;;;;;;128.10;54.83;;;;;;;-4.96;66.31;99415.03;4973106;28;96813;-82
2021/12/28 04:21:23;;;;;;;130.10;55.17;;;;;;;-5.05;66.59;99400.41;4972278;28;100899;-83
2021/12/28 04:23:48;;;;;;;139.83;57.20;;;;;;;-4.98;66.83;99417.56;4970075;28;101668;-83
2021/12/28 04:26:15;;;;;;;132.27;58.10;;;;;;;-5.01;66.90;99410.69;4974488;28;97116;-83
2021/12/28 04:28:41;;;;;;;129.27;54.73;;;;;;;-5.02;67.30;99419.22;4973305;28;96848;-83
2021/12/28 04:31:06;;;;;;;135.67;58.57;;;;;;;-5.01;67.29;99410.69;4989283;28;99822;-83
2021/12/28 04:33:32;;;;;;;131.43;55.53;;;;;;;-4.99;66.78;99404.75;4951998;28;101532;-83
2021/12/28 04:35:58;;;;;;;130.07;56.50;;;;;;;-5.01;67.19;99403.03;4972827;28;96772;-83
2021/12/28 04:38:24;;;;;;;130.27;54.67;;;;;;;-4.97;66.56;99409.06;4961000;28;98006;-81
2021/12/28 04:40:49;;;;;;;136.23;53.27;;;;;;;-5.09;67.39;99401.19;4971495;28;101606;-83
2021/12/28 04:43:16;;;;;;;125.03;52.90;;;;;;;-4.99;67.00;99400.50;4974953;28;101614;-81
2021/12/28 04:45:41;;;;;;;124.13;52.43;;;;;;;-4.94;66.68;99393.75;4976185;28;97714;-83
2021/12/28 04:48:07;;;;;;;122.37;52.93;;;;;;;-4.99;67.27;99394.53;4975835;28;97954;-83
2021/12/28 04:50:37;;;;;;;122.27;51.63;;;;;;;-5.05;67.13;99397.84;4974956;28;101967;-83
2021/12/28 04:53:09;;;;;;;124.10;54.90;;;;;;;-5.09;67.56;99390.94;4972916;28;101631;-83
2021/12/28 04:55:37;;;;;;;127.07;54.28;;;;;;;-5.05;66.79;99375.66;4954752;28;96518;-83
2021/12/28 04:58:03;;;;;;;126.23;52.87;;;;;;;-4.93;67.20;99384.34;4963299;28;96977;-82
2021/12/28 05:00:29;;;;;;;122.10;55.13;;;;;;;-5.06;67.24;99373.06;4968393;28;101224;-82
2021/12/28 05:02:56;;;;;;;124.90;54.53;;;;;;;-5.13;67.34;99372.13;4955148;28;101411;-82
2021/12/28 05:05:21;;;;;;;127.13;54.50;;;;;;;-5.05;67.59;99382.50;4965937;28;96837;-83
2021/12/28 05:07:47;;;;;;;119.50;51.37;;;;;;;-5.04;67.83;99387.63;4969150;28;96952;-82
2021/12/28 05:10:13;;;;;;;121.70;51.57;;;;;;;-5.11;67.43;99378.16;4976761;28;98306;-82
2021/12/28 05:12:39;;;;;;;122.63;52.23;;;;;;;-4.96;67.14;99390.28;4990471;28;101175;-83
2021/12/28 05:15:06;;;;;;;132.30;55.33;;;;;;;-5.10;67.38;99355.97;4973828;28;97242;-83
2021/12/28 05:17:32;;;;;;;115.27;50.90;;;;;;;-4.93;67.25;99374.13;4971702;28;98147;-83
2021/12/28 05:19:57;;;;;;;130.23;53.87;;;;;;;-4.93;67.53;99381.81;4956580;28;101050;-82
2021/12/28 05:22:23;;;;;;;123.03;54.57;;;;;;;-4.97;66.90;99365.53;4964815;28;100824;-83
2021/12/28 05:24:49;;;;;;;120.00;53.53;;;;;;;-4.91;67.18;99360.50;4964943;28;97347;-83
2021/12/28 05:27:14;;;;;;;122.07;54.57;;;;;;;-4.98;67.28;99361.25;4964323;28;97002;-84
2021/12/28 05:29:40;;;;;;;123.43;53.33;;;;;;;-4.97;67.49;99359.53;4973125;28;98451;-83
2021/12/28 05:32:06;;;;;;;126.30;53.03;;;;;;;-4.92;67.00;99348.53;4969465;28;101369;-82
2021/12/28 05:34:32;;;;;;;136.87;52.70;;;;;;;-4.95;67.23;99345.06;4973546;28;96749;-84
2021/12/28 05:36:58;;;;;;;117.60;52.37;;;;;;;-4.90;67.51;99346.84;4962865;28;97183;-83
2021/12/28 05:39:23;;;;;;;122.60;53.30;;;;;;;-5.01;67.11;99327.94;4991075;28;97578;-83
2021/12/28 05:41:49;;;;;;;123.13;55.73;;;;;;;-4.96;67.74;99336.53;4965399;28;101851;-83
2021/12/28 05:44:16;;;;;;;133.90;55.67;;;;;;;-5.06;67.79;99330.44;4958985;28;97349;-81
2021/12/28 05:46:42;;;;;;;126.10;52.07;;;;;;;-4.91;67.67;99334.03;4973764;28;97254;-83
2021/12/28 05:49:07;;;;;;;129.43;56.97;;;;;;;-4.86;67.04;99340.06;4993888;28;101531;-83
2021/12/28 05:51:33;;;;;;;138.53;56.97;;;;;;;-4.94;67.82;99327.19;4957723;28;101451;-81
2021/12/28 05:53:58;;;;;;;128.00;55.47;;;;;;;-5.02;67.76;99327.06;4977584;28;96701;-84
2021/12/28 05:56:24;;;;;;;130.03;55.73;;;;;;;-4.93;67.59;99328.91;4964164;28;97073;-83
2021/12/28 05:58:51;;;;;;;132.60;57.43;;;;;;;-5.04;68.09;99325.34;4974780;28;101572;-83
2021/12/28 06:01:17;;;;;;;126.97;54.97;;;;;;;-4.85;67.40;99327.28;4988061;28;101764;-82
2021/12/28 06:03:42;;;;;;;130.87;55.60;;;;;;;-4.90;67.82;99320.41;4983188;28;96688;-83
2021/12/28 06:06:08;;;;;;;132.53;58.07;;;;;;;-4.95;67.77;99307.53;4977999;28;96862;-83
2021/12/28 06:08:33;;;;;;;131.83;56.17;;;;;;;-4.92;67.78;99304.16;4980844;28;101770;-82
2021/12/28 06:11:00;;;;;;;130.47;57.70;;;;;;;-4.96;68.36;99303.25;4979808;28;101382;-82
2021/12/28 06:13:25;;;;;;;132.87;57.93;;;;;;;-4.93;68.42;99295.63;4972097;28;97171;-83
2021/12/28 06:15:51;;;;;;;124.47;58.17;;;;;;;-5.02;69.23;99298.91;4965953;28;97128;-83
2021/12/28 06:18:17;;;;;;;127.13;56.77;;;;;;;-4.99;69.23;99294.69;4987487;28;98247;-83
2021/12/28 06:20:42;;;;;;;131.20;56.77;;;;;;;-4.84;69.15;99311.06;4959005;28;101366;-83
2021/12/28 06:23:08;;;;;;;130.83;57.40;;;;;;;-5.01;69.36;99292.94;4983876;28;96765;-83
2021/12/28 06:25:33;;;;;;;141.10;59.20;;;;;;;-4.86;68.76;99305.09;4960573;28;96827;-83
2021/12/28 06:27:59;;;;;;;124.67;57.23;;;;;;;-4.84;69.50;99303.41;4959878;28;101320;-82
2021/12/28 06:30:24;;;;;;;133.03;56.73;;;;;;;-4.80;68.86;99317.09;4967228;28;100007;-83
2021/12/28 06:32:50;;;;;;;131.43;57.10;;;;;;;-4.73;68.79;99305.22;4977654;28;97194;-82
2021/12/28 06:35:16;;;;;;;129.77;57.70;;;;;;;-4.70;69.35;99320.63;4995613;28;96836;-83
2021/12/28 06:37:41;;;;;;;120.23;56.17;;;;;;;-4.68;69.16;99319.81;4957674;28;100465;-83
2021/12/28 06:40:09;;;;;;;127.77;58.13;;;;;;;-4.72;69.33;99309.50;4973304;28;98640;-83
2021/12/28 06:42:34;;;;;;;129.30;58.30;;;;;;;-4.76;69.08;99302.63;4985410;28;96976;-82
2021/12/28 06:45:02;;;;;;;132.33;58.20;;;;;;;-4.64;69.74;99318.13;4975474;28;96795;-83
2021/12/28 06:47:28;;;;;;;123.40;56.63;;;;;;;-4.62;69.47;99303.66;4958237;28;101024;-82
2021/12/28 06:49:53;;;;;;;125.50;55.47;;;;;;;-4.53;69.15;99310.56;4967608;28;101161;-83
2021/12/28 06:52:19;;;;;;;138.10;61.83;;;;;;;-4.51;69.14;99306.31;4970186;28;96765;-84
2021/12/28 06:54:45;;;;;;;127.93;57.50;;;;;;;-4.57;69.17;99312.22;4987778;28;97386;-84
2021/12/28 06:57:12;;;;;;;133.20;59.93;;;;;;;-4.57;69.29;99295.19;4964260;28;101444;-83
2021/12/28 06:59:45;;;;;;;132.33;61.60;;;;;;;-4.55;69.32;99315.66;4968400;28;101658;-84
2021/12/28 07:02:12;;;;;;;155.00;64.30;;;;;;;-4.47;69.29;99306.38;4961013;28;96728;-83
2021/12/28 07:04:38;;;;;;;143.00;60.13;;;;;;;-4.48;68.95;99301.22;4955799;28;97321;-83
2021/12/28 07:07:04;;;;;;;145.40;63.63;;;;;;;-4.46;69.01;99317.47;4958970;28;101482;-82
2021/12/28 07:09:30;;;;;;;123.70;58.43;;;;;;;-4.38;69.13;99309.03;4960815;28;101252;-83
2021/12/28 07:11:56;;;;;;;121.30;54.70;;;;;;;-4.51;68.87;99278.13;4963018;28;96883;-83
2021/12/28 07:14:22;;;;;;;133.40;57.60;;;;;;;-4.41;69.38;99288.50;4958944;28;96824;-83
2021/12/28 07:16:47;;;;;;;118.40;54.37;;;;;;;-4.45;69.12;99291.88;4958899;28;101784;-83
2021/12/28 07:19:13;;;;;;;128.93;56.53;;;;;;;-4.44;69.34;99274.81;4961128;28;100780;-82
2021/12/28 07:21:39;;;;;;;124.50;57.13;;;;;;;-4.34;68.83;99285.13;4976600;28;96738;-82
2021/12/28 07:24:06;;;;;;;127.70;56.80;;;;;;;-4.43;69.27;99266.25;4984372;28;96755;-82
2021/12/28 07:26:32;;;;;;;129.23;57.63;;;;;;;-4.28;69.27;99296.28;4974726;28;97996;-83
2021/12/28 07:28:58;;;;;;;125.63;56.07;;;;;;;-4.28;69.12;99289.44;4969869;28;98418;-83
2021/12/28 07:31:24;;;;;;;129.53;57.30;;;;;;;-4.24;68.85;99282.69;4956827;28;98042;-81
2021/12/28 07:33:49;;;;;;;121.03;55.40;;;;;;;-4.24;69.16;99283.53;4953772;28;97077;-81
2021/12/28 07:36:15;;;;;;;125.30;59.33;;;;;;;-4.10;69.04;99291.34;4953815;28;101809;-81
2021/12/28 07:38:41;;;;;;;145.60;58.57;;;;;;;-4.30;68.32;99251.84;4947260;28;101340;-81
2021/12/28 07:41:07;;;;;;;135.20;60.97;;;;;;;-4.20;69.05;99277.56;4952038;28;97211;-83
2021/12/28 07:43:32;;;;;;;125.30;60.80;;;;;;;-4.09;68.95;99285.38;4969498;28;98199;-81
2021/12/28 07:45:58;;;;;;;136.20;59.23;;;;;;;-4.03;68.66;99289.69;4955893;28;101938;-81
2021/12/28 07:48:23;;;;;;;134.40;58.70;;;;;;;-4.12;68.52;99273.38;4980324;28;102206;-81
2021/12/28 07:50:49;;;;;;;134.47;62.07;;;;;;;-3.98;68.50;99282.91;4954527;28;97250;-82
2021/12/28 07:53:14;;;;;;;133.67;62.67;;;;;;;-3.93;68.62;99274.41;4968405;28;97098;-81
2021/12/28 07:55:40;;;;;;;130.90;59.57;;;;;;;-3.82;68.57;99289.84;4949330;28;100034;-82
2021/12/28 07:58:06;;;;;;;136.47;60.77;;;;;;;-3.85;68.56;99259.03;4982169;28;97502;-82
2021/12/28 08:00:32;;;;;;;130.53;60.17;;;;;;;-3.63;68.10;99284.84;4968572;28;97192;-81
2021/12/28 08:03:00;;;;;;;128.17;59.00;;;;;;;-3.59;67.99;99300.25;4972971;28;98792;-82
2021/12/28 08:05:26;;;;;;;128.70;57.50;;;;;;;-3.36;67.42;99307.25;4972716;28;101147;-80
2021/12/28 08:07:51;;;;;;;120.60;57.87;;;;;;;-3.42;67.51;99278.13;4973183;28;101150;-82
2021/12/28 08:10:18;;;;;;;124.00;56.03;;;;;;;-3.03;66.99;99283.44;4971971;28;98708;-83
2021/12/28 08:12:43;;;;;;;120.00;54.70;;;;;;;-2.86;66.13;99293.78;4967908;28;97098;-82
2021/12/28 08:15:10;;;;;;;117.87;55.07;;;;;;;-2.80;66.06;99288.69;4948863;28;101335;-80
2021/12/28 08:17:36;;;;;;;121.40;55.33;;;;;;;-2.96;65.97;99278.34;4946983;28;101310;-81
2021/12/28 08:20:04;;;;;;;126.13;56.73;;;;;;;-2.78;65.80;99284.41;4952380;28;97599;-84
2021/12/28 08:22:29;;;;;;;116.00;54.77;;;;;;;-2.77;66.60;99279.25;4967986;28;97160;-83
2021/12/28 08:24:55;;;;;;;119.97;55.90;;;;;;;-2.90;66.54;99280.09;4982312;28;98592;-83
2021/12/28 08:27:22;;;;;;;124.23;54.70;;;;;;;-3.01;67.13;99263.78;4959324;28;101747;-84
2021/12/28 08:29:48;;;;;;;115.13;53.77;;;;;;;-3.00;66.69;99274.03;4968785;28;97182;-82
2021/12/28 08:32:13;;;;;;;118.13;57.53;;;;;;;-2.99;67.10;99267.22;4948600;28;97708;-84
2021/12/28 08:34:39;;;;;;;115.87;54.90;;;;;;;-3.06;67.16;99257.75;4951735;28;103224;-84
2021/12/28 08:37:05;;;;;;;110.00;53.33;;;;;;;-3.14;67.52;99239.78;4968015;28;99047;-83
2021/12/28 08:39:30;;;;;;;124.67;57.07;;;;;;;-3.05;66.98;99223.56;4982141;28;98222;-82
2021/12/28 08:41:56;;;;;;;122.57;56.47;;;;;;;-3.15;67.34;99220.06;4954963;28;97869;-84
2021/12/28 08:44:21;;;;;;;121.80;54.13;;;;;;;-3.15;67.68;99221.78;4985635;28;98046;-82
2021/12/28 08:46:47;;;;;;;118.87;54.67;;;;;;;-3.00;67.64;99247.50;4955858;28;101441;-85
2021/12/28 08:49:13;;;;;;;121.70;57.70;;;;;;;-3.14;67.31;99241.47;4966961;28;96928;-89
2021/12/28 08:51:39;;;;;;;117.50;54.47;;;;;;;-3.15;67.21;99234.63;4958703;28;97222;-91
2021/12/28 08:54:04;;;;;;;114.77;54.53;;;;;;;-2.91;67.10;99247.53;4973519;28;101189;-84
2021/12/28 08:56:30;;;;;;;117.27;53.63;;;;;;;-2.98;68.17;99236.41;4951114;28;100462;-84
2021/12/28 08:58:56;;;;;;;121.67;55.87;;;;;;;-2.87;67.36;99251.84;4969420;28;98047;-85
2021/12/28 09:01:21;;;;;;;121.70;55.73;;;;;;;-3.07;68.23;99213.25;4978591;28;97095;-85
2021/12/28 09:03:48;;;;;;;110.40;53.13;;;;;;;-3.00;67.93;99229.53;4956739;28;100882;-85
2021/12/28 09:06:13;;;;;;;115.20;56.10;;;;;;;-2.91;67.80;99242.41;4954083;28;101680;-82
2021/12/28 09:08:39;;;;;;;110.27;53.97;;;;;;;-2.88;67.73;99244.13;4957992;28;97338;-80
2021/12/28 09:11:04;;;;;;;115.53;54.50;;;;;;;-2.88;67.29;99226.16;4976031;28;97125;-79
2021/12/28 09:13:30;;;;;;;117.63;56.67;;;;;;;-2.89;67.90;99224.44;4977892;28;101559;-80
2021/12/28 09:15:55;;;;;;;112.17;53.10;;;;;;;-2.88;67.71;99231.28;4958428;28;101496;-79
2021/12/28 09:18:22;;;;;;;110.30;52.83;;;;;;;-2.68;67.59;99239.88;4985188;28;97161;-82
2021/12/28 09:20:47;;;;;;;120.03;56.40;;;;;;;-2.63;67.60;99235.63;4976755;28;96795;-88
2021/12/28 09:23:13;;;;;;;114.97;54.70;;;;;;;-2.64;67.40;99223.66;4983812;28;98067;-85
2021/12/28 09:25:39;;;;;;;115.50;54.10;;;;;;;-2.55;67.04;99236.50;4966486;28;100335;-87
2021/12/28 09:28:06;;;;;;;113.70;54.63;;;;;;;-2.59;67.13;99221.94;4982510;28;97252;-82
2021/12/28 09:30:32;;;;;;;112.83;54.00;;;;;;;-2.44;67.13;99217.66;4979360;28;97278;-81
2021/12/28 09:32:58;;;;;;;117.93;55.57;;;;;;;-2.34;66.98;99212.53;4972169;28;101302;-82
2021/12/28 09:35:24;;;;;;;124.70;59.07;;;;;;;-2.28;67.02;99217.66;4990653;28;98212;-82
2021/12/28 09:37:49;;;;;;;122.50;58.77;;;;;;;-2.21;67.14;99220.22;4983847;28;97056;-81
2021/12/28 09:40:15;;;;;;;113.00;54.23;;;;;;;-2.18;66.60;99210.84;4958501;28;97472;-81
2021/12/28 09:42:44;;;;;;;120.77;55.83;;;;;;;-2.24;66.86;99195.41;4953445;28;101014;-81
2021/12/28 09:45:11;;;;;;;112.07;53.07;;;;;;;-2.07;66.81;99208.22;4958248;28;101228;-87
2021/12/28 09:47:37;;;;;;;113.37;55.30;;;;;;;-1.92;66.67;99203.09;4992893;28;97092;-88
2021/12/28 09:50:05;;;;;;;115.93;54.03;;;;;;;-1.76;65.72;99201.34;4976263;28;97599;-85
2021/12/28 09:52:31;;;;;;;116.63;55.50;;;;;;;-1.81;65.96;99203.06;4972828;28;98282;-83
2021/12/28 09:54:56;;;;;;;114.83;55.50;;;;;;;-1.70;66.24;99191.03;4959177;28;101093;-86
2021/12/28 09:57:22;;;;;;;117.10;54.90;;;;;;;-1.67;66.02;99203.88;4988630;28;97156;-80
2021/12/28 09:59:48;;;;;;;113.13;53.93;;;;;;;-1.70;66.11;99192.75;4976056;28;97292;-87
2021/12/28 10:02:15;;;;;;;115.27;54.73;;;;;;;-1.77;66.94;99193.63;4971979;28;97515;-81
2021/12/28 10:04:54;;;;;;;117.87;54.27;;;;;;;-1.77;66.90;99179.03;4979103;28;99804;-86
2021/12/28 10:07:26;;;;;;;113.97;53.93;;;;;;;-1.79;66.93;99180.75;4992832;28;97687;-87
2021/12/28 10:09:53;;;;;;;118.30;53.87;;;;;;;-1.83;66.90;99179.06;4988649;28;97045;-85
2021/12/28 10:12:36;;;;;;;113.97;54.53;;;;;;;-1.74;66.60;99179.03;4965378;28;101875;-88
2021/12/28 10:15:05;;;;;;;111.20;51.47;;;;;;;-1.63;66.80;99186.72;4959096;28;100124;-88
2021/12/28 10:17:33;;;;;;;121.30;53.97;;;;;;;-1.66;67.32;99181.56;4974509;28;97175;-88
2021/12/28 10:20:00;;;;;;;104.50;49.73;;;;;;;-1.64;67.15;99170.41;4984723;28;97894;-88
2021/12/28 10:22:27;;;;;;;104.57;52.87;;;;;;;-1.58;67.49;99173.84;4987491;28;101477;-88
2021/12/28 10:25:11;;;;;;;105.93;50.03;;;;;;;-1.64;67.26;99133.53;4983199;28;98076;-88
2021/12/28 10:27:40;;;;;;;119.27;55.00;;;;;;;-1.40;67.04;99169.50;4969614;28;98208;-87
2021/12/28 10:30:12;;;;;;;113.07;53.20;;;;;;;-1.45;66.80;99167.81;4985158;28;97281;-90
2021/12/28 10:32:39;;;;;;;109.13;54.15;;;;;;;-1.47;67.60;99162.66;4985295;28;98097;-89
2021/12/28 10:35:11;;;;;;;118.40;53.53;;;;;;;-1.42;67.20;99153.19;4973189;28;100140;-89
2021/12/28 10:37:40;;;;;;;106.40;51.07;;;;;;;-1.41;67.53;99149.75;4958351;28;97872;-88
2021/12/28 10:40:08;;;;;;;116.87;52.13;;;;;;;-1.38;67.83;99142.00;4957132;28;97030;-89
2021/12/28 10:42:46;;;;;;;114.30;52.30;;;;;;;-1.33;67.74;99133.41;4989611;28;101580;-86
2021/12/28 10:45:18;;;;;;;111.73;54.67;;;;;;;-1.34;67.92;99123.97;4991036;28;97633;-85
2021/12/28 10:47:44;;;;;;;117.35;53.75;;;;;;;-1.18;67.50;99131.59;4974918;28;96706;-89
2021/12/28 10:50:30;;;;;;;114.20;54.73;;;;;;;-1.18;67.35;99116.16;4987459;28;97985;-89
2021/12/28 10:53:12;;;;;;;109.17;50.40;;;;;;;-1.38;67.92;99080.22;4965490;28;101534;-87
2021/12/28 10:55:43;;;;;;;111.28;52.08;;;;;;;-1.21;68.05;99117.91;4968592;28;98311;-86
2021/12/28 10:58:11;;;;;;;115.17;53.97;;;;;;;-1.20;67.95;99111.88;4972295;28;97117;-85
2021/12/28 11:00:41;;;;;;;113.33;53.43;;;;;;;-1.07;67.86;99105.78;4973324;28;97062;-86
2021/12/28 11:03:29;;;;;;;108.63;51.87;;;;;;;-1.11;68.25;99096.34;4970632;28;101519;-87
2021/12/28 11:05:56;;;;;;;117.97;52.47;;;;;;;-1.06;68.04;99094.63;4988533;28;102112;-88